createdAt,value
2019-04-29T00:01:12.316Z,8.63
2019-04-29T00:03:53.262Z,6.90
2019-04-29T00:06:33.817Z,6.53
2019-04-29T00:09:14.691Z,6.97
2019-04-29T00:11:55.903Z,6.07
2019-04-29T00:14:37.755Z,6.60
2019-04-29T00:23:09.630Z,7.17
2019-04-29T00:25:57.621Z,7.63
2019-04-29T00:28:45.636Z,7.47
2019-04-29T00:31:33.701Z,7.53
2019-04-29T00:34:21.702Z,8.07
2019-04-29T00:46:04.746Z,7.03
2019-04-29T00:48:45.668Z,7.43
2019-04-29T00:51:24.793Z,7.80
2019-04-29T00:54:31.897Z,6.90
2019-04-29T00:57:19.894Z,6.87
2019-04-29T01:00:28.518Z,7.13
2019-04-29T01:03:16.523Z,7.43
2019-04-29T01:06:04.628Z,8.30
2019-04-29T01:08:52.700Z,9.10
2019-04-29T01:11:40.705Z,8.77
2019-04-29T01:14:28.782Z,8.60
2019-04-29T01:17:16.778Z,7.90
2019-04-29T01:20:04.999Z,7.83
2019-04-29T01:22:53.073Z,8.43
2019-04-29T01:31:51.881Z,9.37
2019-04-29T01:37:40.971Z,8.47
2019-04-29T01:43:59.129Z,10.90
2019-04-29T01:46:41.947Z,11.27
2019-04-29T01:49:22.528Z,9.73
2019-04-29T01:52:03.297Z,9.90
2019-04-29T01:54:43.771Z,8.93
2019-04-29T01:57:24.095Z,8.73
2019-04-29T02:00:04.991Z,10.07
2019-04-29T02:02:45.333Z,9.17
2019-04-29T02:05:25.971Z,10.33
2019-04-29T02:08:06.555Z,9.30
2019-04-29T02:10:47.302Z,9.10
2019-04-29T02:13:27.663Z,9.63
2019-04-29T02:16:08.375Z,11.13
2019-04-29T02:18:49.070Z,10.40
2019-04-29T02:21:29.748Z,9.27
2019-04-29T02:27:05.776Z,10.93
2019-04-29T02:29:46.939Z,12.43
2019-04-29T02:32:27.776Z,10.03
2019-04-29T02:35:08.608Z,9.93
2019-04-29T02:37:49.392Z,10.83
2019-04-29T02:43:26.496Z,11.60
2019-04-29T02:46:07.389Z,11.63
2019-04-29T02:48:48.063Z,11.17
2019-04-29T02:51:47.594Z,11.30
2019-04-29T02:54:30.029Z,12.77
2019-04-29T03:03:22.542Z,13.13
2019-04-29T03:06:03.772Z,14.33
2019-04-29T03:08:44.216Z,13.80
2019-04-29T03:11:24.957Z,14.00
2019-04-29T03:14:05.445Z,15.37
2019-04-29T03:16:46.095Z,15.63
2019-04-29T03:19:32.151Z,14.80
2019-04-29T03:22:13.363Z,16.27
2019-04-29T03:24:53.890Z,15.87
2019-04-29T03:27:34.365Z,15.50
2019-04-29T03:30:15.152Z,14.30
2019-04-29T03:32:55.519Z,14.20
2019-04-29T03:35:36.119Z,16.67
2019-04-29T03:38:16.948Z,15.30
2019-04-29T03:40:57.640Z,16.20
2019-04-29T03:43:38.899Z,17.03
2019-04-29T03:46:19.975Z,16.87
2019-04-29T03:49:00.482Z,18.10
2019-04-29T03:51:41.686Z,16.33
2019-04-29T03:54:23.180Z,17.60
2019-04-29T03:57:04.392Z,15.83
2019-04-29T03:59:45.216Z,18.87
2019-04-29T04:05:54.259Z,17.70
2019-04-29T04:08:37.166Z,16.00
2019-04-29T04:11:17.702Z,17.47
2019-04-29T04:13:58.315Z,17.50
2019-04-29T04:16:58.136Z,18.13
2019-04-29T04:19:39.454Z,16.90
2019-04-29T04:22:20.207Z,18.03
2019-04-29T04:25:00.753Z,17.57
2019-04-29T04:27:41.228Z,16.93
2019-04-29T04:30:22.029Z,16.63
2019-04-29T04:33:02.431Z,18.20
2019-04-29T04:35:43.225Z,18.07
2019-04-29T04:38:24.246Z,17.90
2019-04-29T04:41:07.605Z,18.27
2019-04-29T04:43:48.535Z,18.40
2019-04-29T04:46:29.248Z,18.20
2019-04-29T04:49:10.176Z,18.10
2019-04-29T04:51:51.030Z,18.30
2019-04-29T04:54:31.730Z,20.37
2019-04-29T04:57:12.303Z,19.03
2019-04-29T04:59:53.115Z,17.77
2019-04-29T05:02:34.224Z,18.53
2019-04-29T05:05:15.079Z,19.13
2019-04-29T05:07:56.045Z,17.30
2019-04-29T05:10:36.841Z,20.23
2019-04-29T05:13:05.927Z,19.27
2019-04-29T05:15:54.256Z,19.07
2019-04-29T05:18:42.281Z,17.07
2019-04-29T05:21:30.267Z,18.50
2019-04-29T05:24:18.263Z,17.77
2019-04-29T05:27:06.339Z,16.17
2019-04-29T05:29:54.678Z,16.87
2019-04-29T05:32:42.679Z,16.97
2019-04-29T05:35:49.782Z,15.93
2019-04-29T05:41:50.134Z,15.63
2019-04-29T05:44:57.205Z,15.83
2019-04-29T05:47:52.344Z,13.90
2019-04-29T05:53:42.352Z,12.17
2019-04-29T05:56:30.347Z,11.63
2019-04-29T05:59:18.343Z,11.40
2019-04-29T06:02:06.418Z,11.47
2019-04-29T06:04:54.414Z,10.47
2019-04-29T06:07:42.435Z,11.77
2019-04-29T06:10:30.432Z,12.20
2019-04-29T06:13:19.243Z,11.40
2019-04-29T06:16:07.259Z,11.73
2019-04-29T06:19:00.266Z,11.07
2019-04-29T06:21:44.956Z,11.00
2019-04-29T06:24:32.983Z,10.63
2019-04-29T06:27:23.075Z,10.13
2019-04-29T06:30:11.157Z,10.17
2019-04-29T06:32:59.417Z,10.10
2019-04-29T06:35:49.023Z,8.27
2019-04-29T06:38:37.983Z,6.93
2019-04-29T06:41:25.991Z,7.73
2019-04-29T06:44:16.661Z,7.50
2019-04-29T06:47:03.724Z,7.90
2019-04-29T06:49:51.702Z,7.20
2019-04-29T06:52:40.021Z,7.83
2019-04-29T06:55:28.074Z,8.50
2019-04-29T06:58:16.427Z,9.10
2019-04-29T07:01:04.661Z,7.73
2019-04-29T07:03:55.815Z,7.57
2019-04-29T07:06:56.422Z,8.33
2019-04-29T07:09:32.130Z,7.07
2019-04-29T07:12:20.138Z,8.57
2019-04-29T07:15:12.334Z,8.33
2019-04-29T07:17:57.851Z,8.47
2019-04-29T07:23:52.958Z,9.03
2019-04-29T07:26:40.980Z,10.00
2019-04-29T07:29:32.608Z,8.43
2019-04-29T07:32:19.642Z,8.80
2019-04-29T07:35:09.844Z,9.30
2019-04-29T07:37:50.663Z,9.20
2019-04-29T07:40:31.444Z,8.93
2019-04-29T07:43:12.241Z,8.87
2019-04-29T07:46:03.760Z,8.83
2019-04-29T07:48:43.612Z,15.30
2019-04-29T07:51:24.210Z,17.33
2019-04-29T07:54:05.206Z,12.00
2019-04-29T07:56:45.614Z,16.43
2019-04-29T07:59:26.356Z,14.73
2019-04-29T08:02:07.747Z,11.30
2019-04-29T08:04:48.192Z,9.73
2019-04-29T08:07:28.991Z,9.37
2019-04-29T08:10:22.839Z,8.37
2019-04-29T08:12:52.099Z,7.80
2019-04-29T08:15:36.647Z,8.87
2019-04-29T08:18:16.455Z,8.60
2019-04-29T08:20:58.203Z,8.63
2019-04-29T08:23:42.112Z,9.40
2019-04-29T08:26:21.922Z,8.87
2019-04-29T08:29:02.596Z,9.40
2019-04-29T08:31:43.347Z,9.43
2019-04-29T08:34:24.425Z,8.80
2019-04-29T08:37:04.864Z,10.00
2019-04-29T08:40:00.297Z,9.50
2019-04-29T08:42:31.198Z,9.90
2019-04-29T08:45:34.766Z,10.33
2019-04-29T08:48:01.888Z,10.73
2019-04-29T08:53:57.102Z,16.47
2019-04-29T08:57:01.852Z,17.33
2019-04-29T08:59:34.844Z,15.17
2019-04-29T09:02:34.311Z,11.70
2019-04-29T09:05:13.235Z,10.80
2019-04-29T09:08:03.022Z,10.77
2019-04-29T09:13:58.103Z,11.63
2019-04-29T09:16:46.091Z,10.90
2019-04-29T09:19:34.434Z,12.40
2019-04-29T09:22:42.214Z,11.53
2019-04-29T09:26:01.981Z,12.40
2019-04-29T09:28:39.050Z,12.90
2019-04-29T09:31:27.350Z,12.70
2019-04-29T09:34:15.604Z,12.77
2019-04-29T09:36:56.640Z,14.33
2019-04-29T09:39:43.412Z,11.90
2019-04-29T09:48:35.804Z,11.87
2019-04-29T09:51:18.078Z,12.60
2019-04-29T09:53:59.370Z,13.40
2019-04-29T09:56:39.711Z,14.23
2019-04-29T10:08:08.916Z,15.47
2019-04-29T10:10:49.638Z,16.20
2019-04-29T10:13:30.352Z,18.40
2019-04-29T10:16:31.699Z,17.73
2019-04-29T10:19:31.698Z,17.33
2019-04-29T10:22:12.055Z,16.83
2019-04-29T10:24:52.949Z,17.83
2019-04-29T10:27:34.113Z,18.13
2019-04-29T10:30:17.246Z,18.97
2019-04-29T10:32:58.736Z,18.37
2019-04-29T10:35:40.766Z,17.90
2019-04-29T10:38:22.028Z,17.43
2019-04-29T10:41:24.757Z,17.30
2019-04-29T10:44:24.922Z,17.50
2019-04-29T10:47:25.162Z,16.23
2019-04-29T10:50:10.525Z,17.23
2019-04-29T10:52:52.117Z,16.80
2019-04-29T10:55:33.327Z,15.60
2019-04-29T10:58:13.817Z,15.90
2019-04-29T11:00:57.345Z,17.20
2019-04-29T11:03:38.975Z,16.30
2019-04-29T11:06:20.127Z,16.70
2019-04-29T11:09:19.959Z,19.60
2019-04-29T11:12:01.194Z,21.50
2019-04-29T11:14:42.946Z,22.43
2019-04-29T11:17:25.742Z,22.50
2019-04-29T11:20:06.795Z,19.87
2019-04-29T11:22:53.187Z,17.30
2019-04-29T11:25:53.068Z,15.93
2019-04-29T11:28:33.810Z,17.40
2019-04-29T11:31:18.840Z,15.43
2019-04-29T11:37:13.835Z,17.83
2019-04-29T11:39:53.426Z,18.23
2019-04-29T11:42:36.786Z,16.30
2019-04-29T11:45:16.477Z,17.90
2019-04-29T11:47:57.508Z,17.13
2019-04-29T11:53:31.151Z,24.13
2019-04-29T11:56:12.093Z,24.77
2019-04-29T11:59:11.744Z,18.40
2019-04-29T12:02:14.748Z,17.70
2019-04-29T12:05:20.149Z,15.97
2019-04-29T12:08:04.988Z,17.00
2019-04-29T12:10:48.409Z,17.53
2019-04-29T12:13:51.511Z,17.63
2019-04-29T12:16:37.108Z,15.80
2019-04-29T12:19:24.922Z,18.90
2019-04-29T12:22:09.116Z,19.33
2019-04-29T12:24:49.058Z,17.07
2019-04-29T12:27:29.751Z,15.30
2019-04-29T12:30:12.083Z,16.57
2019-04-29T12:36:08.423Z,14.10
2019-04-29T12:39:07.871Z,13.97
2019-04-29T12:44:55.112Z,15.20
2019-04-29T12:47:36.584Z,18.50
2019-04-29T12:50:21.537Z,20.60
2019-04-29T12:53:00.523Z,17.03
2019-04-29T12:55:46.103Z,14.07
2019-04-29T12:58:25.814Z,12.67
2019-04-29T13:01:49.929Z,12.00
2019-04-29T13:04:28.148Z,11.00
2019-04-29T13:13:15.779Z,11.10
2019-04-29T13:16:20.297Z,11.10
2019-04-29T13:19:11.663Z,10.00
2019-04-29T13:21:47.312Z,10.60
2019-04-29T13:24:28.903Z,10.63
2019-04-29T13:27:16.393Z,10.73
2019-04-29T13:29:50.799Z,11.93
2019-04-29T13:32:39.152Z,10.50
2019-04-29T13:35:20.251Z,11.40
2019-04-29T13:38:01.170Z,13.13
2019-04-29T13:40:41.955Z,14.10
2019-04-29T13:43:25.946Z,12.60
2019-04-29T13:46:24.384Z,12.47
2019-04-29T13:52:15.625Z,15.00
2019-04-29T13:54:56.982Z,14.93
2019-04-29T13:57:37.470Z,13.83
2019-04-29T14:00:37.353Z,14.57
2019-04-29T14:06:14.435Z,14.70
2019-04-29T14:08:55.627Z,13.93
2019-04-29T14:11:36.205Z,13.80
2019-04-29T14:14:17.984Z,15.40
2019-04-29T14:17:17.224Z,14.37
2019-04-29T14:19:42.605Z,14.27
2019-04-29T14:22:23.304Z,13.73
2019-04-29T14:25:03.898Z,13.80
2019-04-29T14:27:44.921Z,14.30
2019-04-29T14:30:37.800Z,15.23
2019-04-29T14:33:08.793Z,15.63
2019-04-29T14:38:58.959Z,23.90
2019-04-29T14:41:42.696Z,20.83
2019-04-29T14:44:42.589Z,17.23
2019-04-29T14:50:22.990Z,16.00
2019-04-29T14:53:03.594Z,15.50
2019-04-29T14:55:44.147Z,15.13
2019-04-29T14:58:24.851Z,14.70
2019-04-29T15:01:12.730Z,16.20
2019-04-29T15:03:56.572Z,17.00
2019-04-29T15:06:38.052Z,15.73
2019-04-29T15:09:19.962Z,17.17
2019-04-29T15:12:25.547Z,18.43
2019-04-29T15:21:33.355Z,17.80
2019-04-29T15:24:17.397Z,18.17
2019-04-29T15:26:56.938Z,18.27
2019-04-29T15:29:37.738Z,18.13
2019-04-29T15:32:22.041Z,20.00
2019-04-29T15:35:01.329Z,17.47
2019-04-29T15:37:42.015Z,16.83
2019-04-29T15:40:26.010Z,19.10
2019-04-29T15:43:06.000Z,19.27
2019-04-29T15:45:46.716Z,21.00
2019-04-29T15:48:27.211Z,20.70
2019-04-29T15:51:09.224Z,19.20
2019-04-29T15:53:54.150Z,20.07
2019-04-29T15:56:38.300Z,19.47
2019-04-29T15:59:16.537Z,20.30
2019-04-29T16:01:58.997Z,21.80
2019-04-29T16:04:47.264Z,22.00
2019-04-29T16:13:39.098Z,23.47
2019-04-29T16:16:19.423Z,23.63
2019-04-29T16:19:06.783Z,26.53
2019-04-29T16:21:42.769Z,26.27
2019-04-29T16:24:26.821Z,24.57
2019-04-29T16:27:08.488Z,26.10
2019-04-29T16:29:51.720Z,27.53
2019-04-29T16:32:35.665Z,27.07
2019-04-29T16:35:18.011Z,27.20
2019-04-29T16:38:05.752Z,27.83
2019-04-29T16:40:46.355Z,29.17
2019-04-29T16:43:33.785Z,28.20
2019-04-29T16:46:37.456Z,29.27
2019-04-29T16:49:16.661Z,26.73
2019-04-29T16:51:57.439Z,29.17
2019-04-29T16:54:38.284Z,30.23
2019-04-29T16:57:19.799Z,31.70
2019-04-29T17:00:06.493Z,30.10
2019-04-29T17:02:43.431Z,31.87
2019-04-29T17:05:25.085Z,32.03
2019-04-29T17:08:09.384Z,33.03
2019-04-29T17:13:42.308Z,34.90
2019-04-29T17:16:24.372Z,37.77
2019-04-29T17:19:05.414Z,38.00
2019-04-29T17:21:46.178Z,33.33
2019-04-29T17:24:26.939Z,35.40
2019-04-29T17:30:46.652Z,33.50
2019-04-29T17:36:36.607Z,33.87
2019-04-29T17:39:17.507Z,34.60
2019-04-29T17:41:58.660Z,35.80
2019-04-29T17:44:48.783Z,36.17
2019-04-29T17:47:49.122Z,35.80
2019-04-29T17:50:48.731Z,35.00
2019-04-29T17:53:35.446Z,34.90
2019-04-29T17:56:36.537Z,35.37
2019-04-29T18:05:33.014Z,31.30
2019-04-29T18:08:25.407Z,33.73
2019-04-29T18:11:08.195Z,33.60
2019-04-29T18:13:52.533Z,33.93
2019-04-29T18:16:39.541Z,33.87
2019-04-29T18:19:26.316Z,35.00
2019-04-29T18:22:29.210Z,36.13
2019-04-29T18:28:08.778Z,36.53
2019-04-29T18:30:49.653Z,35.20
2019-04-29T18:33:32.039Z,38.43
2019-04-29T18:36:21.562Z,37.90
2019-04-29T18:38:55.650Z,36.40
2019-04-29T18:41:36.726Z,36.37
2019-04-29T18:44:19.643Z,35.13
2019-04-29T18:47:00.327Z,38.50
2019-04-29T18:49:40.740Z,40.20
2019-04-29T18:52:25.787Z,37.60
2019-04-29T18:55:03.707Z,40.63
2019-04-29T18:57:44.581Z,39.27
2019-04-29T19:00:25.586Z,38.33
2019-04-29T19:03:06.742Z,37.47
2019-04-29T19:05:55.069Z,35.03
2019-04-29T19:08:36.106Z,38.50
2019-04-29T19:11:16.626Z,38.07
2019-04-29T19:13:57.465Z,36.70
2019-04-29T19:16:39.571Z,35.80
2019-04-29T19:19:20.189Z,39.17
2019-04-29T19:22:07.668Z,35.37
2019-04-29T19:24:46.187Z,36.97
2019-04-29T19:27:26.173Z,36.10
2019-04-29T19:30:08.762Z,37.77
2019-04-29T19:32:49.217Z,38.20
2019-04-29T19:35:34.583Z,36.03
2019-04-29T19:38:14.028Z,38.37
2019-04-29T19:40:53.667Z,38.23
2019-04-29T19:43:41.806Z,40.10
2019-04-29T19:46:36.740Z,40.87
2019-04-29T19:49:19.619Z,41.47
2019-04-29T19:52:07.939Z,41.40
2019-04-29T19:54:57.302Z,42.77
2019-04-29T19:57:48.176Z,41.90
2019-04-29T20:00:38.255Z,41.07
2019-04-29T20:06:36.745Z,38.40
2019-04-29T20:09:27.923Z,40.50
2019-04-29T20:12:17.327Z,39.83
2019-04-29T20:15:07.730Z,41.20
2019-04-29T20:18:13.438Z,36.70
2019-04-29T20:21:25.085Z,36.30
2019-04-29T20:24:15.521Z,40.07
2019-04-29T20:29:38.324Z,40.03
2019-04-29T20:32:27.787Z,39.90
2019-04-29T20:35:15.854Z,38.40
2019-04-29T20:38:00.279Z,39.33
2019-04-29T20:40:43.382Z,41.17
2019-04-29T20:43:26.036Z,41.17
2019-04-29T20:46:05.945Z,42.30
2019-04-29T20:48:50.508Z,42.40
2019-04-29T20:51:47.852Z,42.93
2019-04-29T20:54:19.416Z,42.30
2019-04-29T20:57:04.934Z,43.43
2019-04-29T20:59:46.432Z,41.20
2019-04-29T21:02:31.205Z,41.53
2019-04-29T21:05:09.789Z,38.10
2019-04-29T21:08:02.366Z,40.50
2019-04-29T21:10:33.347Z,40.07
2019-04-29T21:13:33.251Z,40.30
2019-04-29T21:16:29.646Z,39.70
2019-04-29T21:19:09.162Z,39.47
2019-04-29T21:21:50.035Z,37.30
2019-04-29T21:24:31.122Z,41.30
2019-04-29T21:27:17.666Z,39.67
2019-04-29T21:29:55.419Z,36.50
2019-04-29T21:32:38.947Z,39.70
2019-04-29T21:35:37.983Z,37.80
2019-04-29T21:44:17.224Z,34.60
2019-04-29T21:46:59.592Z,35.23
2019-04-29T21:49:45.268Z,32.27
2019-04-29T21:52:24.079Z,30.80
2019-04-29T21:55:06.471Z,28.70
2019-04-29T21:57:47.063Z,30.67
2019-04-29T22:00:27.578Z,28.33
2019-04-29T22:03:08.866Z,28.10
2019-04-29T22:05:53.453Z,28.47
2019-04-29T22:08:32.289Z,28.40
2019-04-29T22:11:12.710Z,27.30
2019-04-29T22:13:55.399Z,28.30
2019-04-29T22:16:36.396Z,27.73
2019-04-29T22:19:17.600Z,27.00
2019-04-29T22:22:01.548Z,30.20
2019-04-29T22:24:40.998Z,28.57
2019-04-29T22:27:21.758Z,26.97
2019-04-29T22:30:02.307Z,28.00
2019-04-29T22:32:42.896Z,27.50
2019-04-29T22:35:25.176Z,27.30
2019-04-29T22:38:07.850Z,23.50
2019-04-29T22:40:50.478Z,26.00
2019-04-29T22:46:35.673Z,25.67
2019-04-29T22:49:19.821Z,25.73
2019-04-29T22:51:59.197Z,23.27
2019-04-29T22:54:39.846Z,22.93
2019-04-29T22:57:22.997Z,22.20
2019-04-29T23:00:05.121Z,24.27
2019-04-29T23:02:46.588Z,23.43
2019-04-29T23:05:27.925Z,25.23
2019-04-29T23:08:10.077Z,23.30
2019-04-29T23:10:50.547Z,23.77
2019-04-29T23:13:32.325Z,25.00
2019-04-29T23:16:12.983Z,21.93
2019-04-29T23:18:55.264Z,22.73
2019-04-29T23:21:55.985Z,22.73
2019-04-29T23:24:55.821Z,23.40
2019-04-29T23:27:37.271Z,22.50
2019-04-29T23:30:22.437Z,22.90
2019-04-29T23:33:02.860Z,22.33
2019-04-29T23:35:44.793Z,24.40
2019-04-29T23:38:25.725Z,24.00
2019-04-29T23:41:07.117Z,23.07
2019-04-29T23:43:48.161Z,19.67
2019-04-29T23:46:29.691Z,16.00
2019-04-29T23:49:10.585Z,16.33
2019-04-29T23:51:51.216Z,16.70
2019-04-29T23:54:32.067Z,18.80
2019-04-29T23:57:23.727Z,19.53
